Positano — IJZJ — position and weather

sailwx.info

Track history (hours):
 
Tides and Currents Weather Stations Pressure Air Temp Water Temp Dewpoint Dewpoint Depression Visibility Wind Speed Wind Dir Waves Ship Positions

Positano

Last reported at 2014-Jun-22 10:32 UTC. Time now 2014-Aug-27 15:16 UTC.
Position N 40°38' E 014°36'.
Warning: this ship's position is months out of date.

Length 12 m.

Type: Passenger vessel. MMSI: 247208300.

Date/timePositionNaut miles runAvg speedWind from/ knotsBaromVisibWave heightAir tempDewpointWater temp
2014-Jun-22 10:32N 40°38' E 014°36'0 0.0
2014-Jun-22 09:24N 40°38' E 014°36'5 4.4
2014-Jun-22 08:19N 40°36' E 014°30'7 8.5
2014-Jun-22 07:30N 40°34' E 014°21'2 2.5
2014-Jun-22 06:33N 40°37' E 014°20'0 0.0
2014-Jun-22 05:33N 40°37' E 014°20'0 0.0
2014-Jun-22 04:34N 40°37' E 014°20'0 0.0
2014-Jun-22 03:34N 40°37' E 014°20'0 0.0
2014-Jun-22 02:33N 40°37' E 014°20'0 0.0
2014-Jun-22 01:33N 40°37' E 014°20'0 0.0
2014-Jun-22 00:33N 40°37' E 014°20'0 0.0
2014-Jun-21 23:33N 40°37' E 014°20'0 0.0
2014-Jun-21 21:33N 40°37' E 014°20'0 0.0
2014-Jun-21 20:33N 40°37' E 014°20'0 0.0
2014-Jun-21 19:33N 40°37' E 014°20'0 0.0
2014-Jun-21 18:33N 40°37' E 014°20'0 0.0
2014-Jun-21 17:33N 40°37' E 014°20'1 0.8
2014-Jun-21 16:32N 40°37' E 014°20'7 3.2
2014-Jun-21 14:20N 40°37' E 014°29'0 0.1
2014-Jun-21 13:28N 40°37' E 014°29'2 0.3
2014-Jun-21 08:33N 40°36' E 014°31'9 0.2
2014-Jun-19 15:33N 40°35' E 014°19'8 5.4
2014-Jun-19 14:07N 40°37' E 014°29'1 0.7
2014-Jun-19 13:22N 40°37' E 014°29'0 0.0
2014-Jun-19 12:32N 40°37' E 014°29'0 0.0
2014-Jun-19 11:33N 40°37' E 014°29'4 3.6
2014-Jun-19 10:33N 40°35' E 014°26'0 0.3
2014-Jun-19 09:30N 40°35' E 014°26'5 4.9
2014-Jun-19 08:33N 40°35' E 014°19'2 0.1
2014-Jun-18 18:15N 40°37' E 014°20'2 2.7
2014-Jun-18 17:32N 40°38' E 014°22'7 1.0
2014-Jun-18 10:33N 40°36' E 014°31'5 4.6
2014-Jun-18 09:33N 40°35' E 014°25'4 4.2
2014-Jun-18 08:33N 40°38' E 014°21'1 1.4
2014-Jun-18 07:32N 40°37' E 014°20'3 0.2
2014-Jun-17 16:31N 40°39' E 014°24'4 2.1
2014-Jun-17 14:32N 40°38' E 014°29'0 0.2
2014-Jun-17 13:33N 40°37' E 014°29'2 0.5
2014-Jun-17 08:28N 40°35' E 014°28'6 6.8
2014-Jun-17 07:34N 40°36' E 014°20'1 0.0
2014-Jun-15 15:33N 40°37' E 014°20'7 6.2
2014-Jun-15 14:30N 40°34' E 014°12'2 0.6
2014-Jun-15 11:10N 40°33' E 014°15'0 0.0
2014-Jun-15 10:33N 40°33' E 014°15'0 0.0
2014-Jun-15 09:33N 40°33' E 014°15'2 1.1
2014-Jun-15 07:33N 40°34' E 014°17'3 3.2
2014-Jun-15 06:29N 40°37' E 014°20'  
2014-Jun-12 16:33N 40°37' E 014°20'7 3.3
2014-Jun-12 14:31N 40°37' E 014°29'0 0.3
2014-Jun-12 13:27N 40°37' E 014°29'0 0.0
2014-Jun-12 12:29N 40°37' E 014°29'0 0.0
2014-Jun-12 11:23N 40°37' E 014°29'  
Track history (hours):
 
Tides and Currents Weather Stations Pressure Air Temp Water Temp Dewpoint Dewpoint Depression Visibility Wind Speed Wind Dir Waves Ship Positions

Positano

Last reported at 2014-Jun-22 10:32 UTC. Time now 2014-Aug-27 15:16 UTC.
Position N 40°38' E 014°36'.
Warning: this ship's position is months out of date.

Length 12 m.

Type: Passenger vessel. MMSI: 247208300.

Date/timePositionNaut miles runAvg speedWind from/ knotsBaromVisibWave heightAir tempDewpointWater temp
2014-Jun-22 10:32N 40°38' E 014°36'0 0.0
2014-Jun-22 09:24N 40°38' E 014°36'5 4.4
2014-Jun-22 08:19N 40°36' E 014°30'7 8.5
2014-Jun-22 07:30N 40°34' E 014°21'2 2.5
2014-Jun-22 06:33N 40°37' E 014°20'0 0.0
2014-Jun-22 05:33N 40°37' E 014°20'0 0.0
2014-Jun-22 04:34N 40°37' E 014°20'0 0.0
2014-Jun-22 03:34N 40°37' E 014°20'0 0.0
2014-Jun-22 02:33N 40°37' E 014°20'0 0.0
2014-Jun-22 01:33N 40°37' E 014°20'0 0.0
2014-Jun-22 00:33N 40°37' E 014°20'0 0.0
2014-Jun-21 23:33N 40°37' E 014°20'0 0.0
2014-Jun-21 21:33N 40°37' E 014°20'0 0.0
2014-Jun-21 20:33N 40°37' E 014°20'0 0.0
2014-Jun-21 19:33N 40°37' E 014°20'0 0.0
2014-Jun-21 18:33N 40°37' E 014°20'0 0.0
2014-Jun-21 17:33N 40°37' E 014°20'1 0.8
2014-Jun-21 16:32N 40°37' E 014°20'7 3.2
2014-Jun-21 14:20N 40°37' E 014°29'0 0.1
2014-Jun-21 13:28N 40°37' E 014°29'2 0.3
2014-Jun-21 08:33N 40°36' E 014°31'9 0.2
2014-Jun-19 15:33N 40°35' E 014°19'8 5.4
2014-Jun-19 14:07N 40°37' E 014°29'1 0.7
2014-Jun-19 13:22N 40°37' E 014°29'0 0.0
2014-Jun-19 12:32N 40°37' E 014°29'0 0.0
2014-Jun-19 11:33N 40°37' E 014°29'4 3.6
2014-Jun-19 10:33N 40°35' E 014°26'0 0.3
2014-Jun-19 09:30N 40°35' E 014°26'5 4.9
2014-Jun-19 08:33N 40°35' E 014°19'2 0.1
2014-Jun-18 18:15N 40°37' E 014°20'2 2.7
2014-Jun-18 17:32N 40°38' E 014°22'7 1.0
2014-Jun-18 10:33N 40°36' E 014°31'5 4.6
2014-Jun-18 09:33N 40°35' E 014°25'4 4.2
2014-Jun-18 08:33N 40°38' E 014°21'1 1.4
2014-Jun-18 07:32N 40°37' E 014°20'3 0.2
2014-Jun-17 16:31N 40°39' E 014°24'4 2.1
2014-Jun-17 14:32N 40°38' E 014°29'0 0.2
2014-Jun-17 13:33N 40°37' E 014°29'2 0.5
2014-Jun-17 08:28N 40°35' E 014°28'6 6.8
2014-Jun-17 07:34N 40°36' E 014°20'1 0.0
2014-Jun-15 15:33N 40°37' E 014°20'7 6.2
2014-Jun-15 14:30N 40°34' E 014°12'2 0.6
2014-Jun-15 11:10N 40°33' E 014°15'0 0.0
2014-Jun-15 10:33N 40°33' E 014°15'0 0.0
2014-Jun-15 09:33N 40°33' E 014°15'2 1.1
2014-Jun-15 07:33N 40°34' E 014°17'3 3.2
2014-Jun-15 06:29N 40°37' E 014°20'  
2014-Jun-12 16:33N 40°37' E 014°20'7 3.3
2014-Jun-12 14:31N 40°37' E 014°29'0 0.3
2014-Jun-12 13:27N 40°37' E 014°29'0 0.0
2014-Jun-12 12:29N 40°37' E 014°29'0 0.0
2014-Jun-12 11:23N 40°37' E 014°29'  

Dump ship's entire track history